Time;durP1;ratioP1;P1;durP2;ratioP2;P2;SDS_P1;SDS_P2;PMS_P1;PMS_P2;Temp;Humidity;BMP_temperature;BMP_pressure;BME280_temperature;BME280_humidity;BME280_pressure;Samples;Min_cycle;Max_cycle;Signal;HPM_P1;HPM_P2
2022/04/26 03:37:36;;;;;;;13.13;9.88;;;8.40;99.90;;;;;;5112907;28;20285;-70
2022/04/26 03:40:03;;;;;;;14.25;11.90;;;8.50;99.90;;;;;;5112394;28;20283;-70
2022/04/26 03:42:30;;;;;;;11.88;10.38;;;8.40;99.90;;;;;;5112905;28;20212;-70
2022/04/26 03:44:57;;;;;;;13.02;10.32;;;8.40;99.90;;;;;;5113112;28;20587;-71
2022/04/26 03:47:23;;;;;;;11.50;10.20;;;8.40;99.90;;;;;;5113064;28;20206;-71
2022/04/26 03:49:52;;;;;;;17.92;11.93;;;8.40;99.90;;;;;;5112346;28;20241;-70
2022/04/26 03:52:20;;;;;;;12.80;10.52;;;8.40;99.90;;;;;;5113340;28;20287;-72
2022/04/26 03:54:47;;;;;;;14.55;8.90;;;8.30;99.90;;;;;;5113174;28;20209;-71
2022/04/26 03:57:14;;;;;;;15.02;10.77;;;8.30;99.90;;;;;;5113045;28;20211;-71
2022/04/26 03:59:41;;;;;;;14.10;11.48;;;8.30;99.90;;;;;;5112336;28;20623;-71
2022/04/26 04:02:11;;;;;;;13.05;10.93;;;8.30;99.90;;;;;;5113286;28;20201;-70
2022/04/26 04:04:38;;;;;;;10.27;8.85;;;8.30;99.90;;;;;;5113051;28;20271;-71
2022/04/26 04:07:06;;;;;;;11.88;10.57;;;8.20;99.90;;;;;;5113016;28;20215;-71
2022/04/26 04:09:33;;;;;;;14.50;10.05;;;8.20;99.90;;;;;;5116077;28;20231;-71
2022/04/26 04:12:00;;;;;;;12.40;9.82;;;8.20;99.90;;;;;;5117087;28;20247;-71
2022/04/26 04:14:28;;;;;;;13.32;10.07;;;8.20;99.90;;;;;;5116676;28;20201;-72
2022/04/26 04:16:57;;;;;;;14.05;10.85;;;8.20;99.90;;;;;;5116489;28;20205;-71
2022/04/26 04:19:25;;;;;;;11.25;9.55;;;8.20;99.90;;;;;;5115335;28;20216;-71
2022/04/26 04:21:53;;;;;;;15.10;11.00;;;8.20;99.90;;;;;;5116676;28;20197;-71
2022/04/26 04:24:21;;;;;;;12.50;9.98;;;8.20;99.90;;;;;;5116273;28;20276;-71
2022/04/26 04:26:49;;;;;;;14.05;12.07;;;8.20;99.90;;;;;;5117112;27;20207;-70
2022/04/26 04:29:16;;;;;;;12.82;9.50;;;8.20;99.90;;;;;;5115760;28;20307;-70
2022/04/26 04:31:43;;;;;;;11.50;9.13;;;8.20;99.90;;;;;;5115999;28;20208;-70
2022/04/26 04:34:10;;;;;;;15.57;10.73;;;8.20;99.90;;;;;;5115803;28;20298;-70
2022/04/26 04:36:37;;;;;;;13.25;9.68;;;8.20;99.90;;;;;;5116015;28;20200;-70
2022/04/26 04:39:05;;;;;;;16.30;10.90;;;8.20;99.90;;;;;;5115267;28;20236;-70
2022/04/26 04:41:36;;;;;;;9.93;8.93;;;8.20;99.90;;;;;;5115415;28;20631;-71
2022/04/26 04:44:05;;;;;;;11.65;9.20;;;8.30;99.90;;;;;;5116071;28;20579;-70
2022/04/26 04:46:32;;;;;;;14.57;10.07;;;8.30;99.90;;;;;;5115979;28;20295;-71
2022/04/26 04:48:59;;;;;;;13.32;9.40;;;8.30;99.90;;;;;;5115603;28;20235;-70
2022/04/26 04:51:26;;;;;;;12.18;10.23;;;8.40;99.90;;;;;;5114824;28;20281;-71
2022/04/26 04:53:53;;;;;;;11.55;9.38;;;8.40;99.90;;;;;;5116173;28;20634;-70
2022/04/26 04:56:19;;;;;;;14.25;8.93;;;8.50;99.90;;;;;;5109833;28;20291;-71
2022/04/26 04:58:48;;;;;;;14.00;11.00;;;8.50;99.90;;;;;;5112070;28;20644;-71
2022/04/26 05:01:15;;;;;;;10.93;8.85;;;8.50;99.90;;;;;;5114719;28;20215;-70
2022/04/26 05:03:42;;;;;;;14.60;10.32;;;8.50;99.90;;;;;;5116331;28;20203;-71
2022/04/26 05:06:10;;;;;;;11.10;9.88;;;8.60;99.90;;;;;;5115784;28;20731;-71
2022/04/26 05:08:37;;;;;;;12.07;10.15;;;8.70;99.90;;;;;;5115393;28;20215;-71
2022/04/26 05:11:04;;;;;;;12.35;9.10;;;8.70;99.90;;;;;;5115238;28;20209;-71
2022/04/26 05:13:31;;;;;;;11.85;8.95;;;8.90;99.90;;;;;;5115880;28;20198;-72
2022/04/26 05:15:59;;;;;;;11.18;10.00;;;9.00;99.90;;;;;;5116040;28;20197;-73
2022/04/26 05:18:28;;;;;;;10.93;8.55;;;9.10;99.90;;;;;;5115424;28;20263;-69
2022/04/26 05:20:55;;;;;;;11.27;8.80;;;9.20;99.90;;;;;;5115735;28;20210;-75
2022/04/26 05:26:07;;;;;;;10.75;8.40;;;9.40;99.90;;;;;;5117402;28;20208;-73
2022/04/26 05:28:34;;;;;;;10.52;8.85;;;9.40;99.90;;;;;;5120923;28;20230;-73
2022/04/26 05:31:04;;;;;;;12.95;10.82;;;9.60;99.90;;;;;;5106664;28;20281;-73
2022/04/26 05:33:31;;;;;;;9.32;8.43;;;9.60;99.90;;;;;;5121444;28;20230;-71
2022/04/26 05:35:58;;;;;;;9.70;7.65;;;9.60;99.90;;;;;;5121694;28;20198;-72
2022/04/26 05:38:25;;;;;;;10.75;8.93;;;9.80;99.90;;;;;;5117199;28;20313;-71
2022/04/26 05:40:52;;;;;;;12.85;9.73;;;9.80;99.90;;;;;;5115614;27;20647;-73
2022/04/26 05:43:20;;;;;;;9.75;7.32;;;9.80;99.90;;;;;;5106121;28;20226;-72
2022/04/26 05:45:47;;;;;;;10.20;8.68;;;9.90;99.90;;;;;;5110438;28;20285;-73
2022/04/26 05:48:15;;;;;;;14.95;8.32;;;10.10;99.90;;;;;;5114903;28;20304;-72
2022/04/26 05:50:42;;;;;;;9.18;7.35;;;10.30;99.90;;;;;;5103679;28;20326;-75
2022/04/26 05:53:09;;;;;;;6.95;6.25;;;11.10;99.90;;;;;;5107029;28;20304;-75
2022/04/26 05:55:36;;;;;;;11.13;7.78;;;12.10;99.90;;;;;;5114230;28;20228;-74
2022/04/26 05:58:03;;;;;;;9.00;7.78;;;13.20;99.90;;;;;;5114119;28;20249;-73
2022/04/26 06:00:30;;;;;;;8.10;6.53;;;14.00;99.90;;;;;;5113219;28;20204;-74
2022/04/26 06:02:58;;;;;;;9.18;7.93;;;14.70;97.40;;;;;;5113667;28;20201;-74
2022/04/26 06:05:26;;;;;;;11.75;8.05;;;14.70;95.20;;;;;;5107070;28;20210;-73
2022/04/26 06:07:54;;;;;;;7.18;6.45;;;14.50;95.00;;;;;;5110377;27;20204;-75
2022/04/26 06:10:22;;;;;;;7.57;6.43;;;14.80;94.60;;;;;;5111503;28;20213;-72
2022/04/26 06:12:49;;;;;;;9.38;7.13;;;14.80;94.10;;;;;;5113995;28;20225;-73
2022/04/26 06:15:17;;;;;;;7.70;6.97;;;14.90;93.60;;;;;;5110230;28;20190;-74
2022/04/26 06:17:45;;;;;;;7.80;6.80;;;14.80;93.00;;;;;;5118464;28;20201;-75
2022/04/26 06:20:12;;;;;;;12.38;7.15;;;14.90;93.00;;;;;;5113751;28;20204;-74
2022/04/26 06:22:41;;;;;;;9.02;7.18;;;14.60;93.10;;;;;;5113931;28;20198;-75
2022/04/26 06:25:09;;;;;;;9.23;6.75;;;14.10;93.00;;;;;;5113669;28;20557;-73
2022/04/26 06:27:36;;;;;;;9.70;7.63;;;13.70;94.60;;;;;;5106401;28;20229;-73
2022/04/26 06:30:03;;;;;;;10.52;7.60;;;13.20;96.20;;;;;;5103136;28;20259;-71
2022/04/26 06:32:30;;;;;;;7.72;6.65;;;13.10;96.90;;;;;;5112741;28;20268;-73
2022/04/26 06:34:57;;;;;;;8.82;7.60;;;13.10;96.60;;;;;;5113729;28;20232;-71
2022/04/26 06:37:24;;;;;;;7.15;5.63;;;13.10;96.20;;;;;;5113815;28;20211;-74
2022/04/26 06:39:53;;;;;;;11.00;6.95;;;13.10;95.50;;;;;;5112474;28;20251;-73
2022/04/26 06:42:22;;;;;;;10.85;7.07;;;13.20;95.00;;;;;;5108171;28;20256;-73
2022/04/26 06:44:50;;;;;;;9.80;7.32;;;13.00;95.70;;;;;;5113411;28;20196;-75
2022/04/26 06:47:17;;;;;;;11.13;6.88;;;13.00;96.30;;;;;;5114008;28;20194;-74
2022/04/26 06:49:44;;;;;;;8.48;6.80;;;13.70;97.30;;;;;;5113764;28;20232;-76
2022/04/26 06:52:11;;;;;;;9.77;6.97;;;15.40;93.80;;;;;;5115161;28;20243;-74
2022/04/26 06:54:37;;;;;;;8.20;5.87;;;16.90;90.30;;;;;;5113477;28;20209;-75
2022/04/26 06:57:06;;;;;;;12.90;7.07;;;18.30;85.00;;;;;;5113866;28;20537;-77
2022/04/26 06:59:33;;;;;;;6.00;5.40;;;19.50;80.80;;;;;;5112689;28;20496;-75
2022/04/26 07:02:00;;;;;;;6.53;5.87;;;20.30;76.60;;;;;;5113132;28;20440;-75
2022/04/26 07:04:27;;;;;;;6.87;5.63;;;21.30;73.60;;;;;;5113325;28;20444;-75
2022/04/26 07:06:53;;;;;;;6.03;5.40;;;21.70;71.70;;;;;;5109692;28;20444;-73
2022/04/26 07:09:20;;;;;;;7.30;5.43;;;22.50;68.70;;;;;;5102084;28;20479;-73
2022/04/26 07:11:47;;;;;;;6.90;6.13;;;22.80;68.00;;;;;;5111728;28;20554;-74
2022/04/26 07:14:16;;;;;;;7.30;6.60;;;23.00;66.00;;;;;;5113147;28;20446;-76
2022/04/26 07:16:45;;;;;;;7.27;6.57;;;22.60;65.30;;;;;;5113099;28;20525;-73
2022/04/26 07:19:12;;;;;;;8.57;6.60;;;22.80;64.00;;;;;;5112552;28;20865;-73
2022/04/26 07:21:39;;;;;;;7.90;7.10;;;23.40;65.00;;;;;;5112544;28;20534;-74
2022/04/26 07:24:06;;;;;;;7.10;6.40;;;23.70;64.10;;;;;;5113053;28;20485;-73
2022/04/26 07:26:33;;;;;;;7.30;5.83;;;23.70;62.80;;;;;;5106985;28;20447;-72
2022/04/26 07:29:00;;;;;;;7.17;5.17;;;24.10;63.10;;;;;;5112975;28;21055;-75
2022/04/26 07:31:30;;;;;;;6.03;5.53;;;23.90;62.20;;;;;;5112349;28;20875;-73
2022/04/26 07:36:42;;;;;;;12.50;5.83;;;22.80;63.80;;;;;;5106186;28;20796;-74
2022/04/26 07:39:09;;;;;;;7.63;5.83;;;22.40;63.80;;;;;;5094678;28;20547;-75
2022/04/26 07:41:37;;;;;;;7.60;6.40;;;22.00;64.80;;;;;;5099416;28;20478;-74
2022/04/26 07:44:04;;;;;;;7.83;7.07;;;21.60;65.10;;;;;;5111368;28;20500;-74
2022/04/26 07:46:32;;;;;;;9.40;6.90;;;21.50;66.20;;;;;;5117248;28;20904;-74
2022/04/26 07:48:59;;;;;;;7.10;6.40;;;21.10;67.50;;;;;;5112114;28;20485;-74
2022/04/26 07:51:30;;;;;;;11.43;6.30;;;21.20;68.20;;;;;;5118939;27;20458;-76
2022/04/26 07:53:59;;;;;;;6.70;5.97;;;21.00;68.30;;;;;;5118047;27;20507;-74
2022/04/26 07:56:27;;;;;;;10.90;7.00;;;21.00;68.60;;;;;;5118361;28;20483;-74
2022/04/26 07:58:58;;;;;;;10.60;7.67;;;21.20;69.40;;;;;;5115030;28;20476;-74
2022/04/26 08:01:25;;;;;;;7.53;6.70;;;21.40;69.10;;;;;;5102197;28;20487;-75
2022/04/26 08:03:53;;;;;;;6.53;5.93;;;21.70;68.80;;;;;;5110653;28;20522;-76
2022/04/26 08:06:20;;;;;;;7.80;6.63;;;21.90;68.10;;;;;;5109347;28;20518;-76
2022/04/26 08:08:47;;;;;;;10.80;6.90;;;22.10;67.90;;;;;;5117579;28;20522;-74
2022/04/26 08:11:15;;;;;;;6.87;6.17;;;23.20;67.70;;;;;;5117047;28;20463;-77
2022/04/26 08:13:43;;;;;;;8.00;5.63;;;24.10;64.90;;;;;;5112254;28;20492;-74
2022/04/26 08:16:11;;;;;;;8.10;6.87;;;24.70;61.90;;;;;;5118103;28;20448;-73
2022/04/26 08:18:38;;;;;;;11.27;7.47;;;25.60;60.50;;;;;;5117535;28;20554;-74
2022/04/26 08:21:08;;;;;;;8.03;7.13;;;26.60;59.10;;;;;;5111990;28;20446;-73
2022/04/26 08:27:22;;;;;;;7.43;6.40;;;26.90;57.80;;;;;;5115470;28;20482;-73
2022/04/26 08:29:08;;;;;;;8.93;6.77;;;27.20;56.70;;;;;;5116446;28;20544;-72
2022/04/26 08:31:35;;;;;;;9.20;6.73;;;27.00;56.40;;;;;;5120964;28;20488;-75
2022/04/26 08:34:03;;;;;;;7.50;6.70;;;26.50;57.10;;;;;;5117638;28;20447;-75
2022/04/26 08:36:31;;;;;;;7.27;6.57;;;26.50;57.10;;;;;;5116602;28;20439;-74
2022/04/26 08:38:58;;;;;;;8.30;7.37;;;26.90;56.60;;;;;;5116708;28;20467;-71
2022/04/26 08:41:25;;;;;;;14.27;6.83;;;27.20;55.80;;;;;;5115660;28;20530;-72
2022/04/26 08:43:52;;;;;;;6.93;6.30;;;26.90;56.10;;;;;;5116148;28;20486;-69
2022/04/26 08:46:19;;;;;;;8.07;6.30;;;27.00;55.00;;;;;;5115687;28;20534;-69
2022/04/26 08:51:33;;;;;;;8.60;6.80;;;26.90;55.50;;;;;;5114903;28;20487;-75
2022/04/26 08:54:00;;;;;;;7.50;6.80;;;27.30;54.20;;;;;;5114924;28;20534;-74
2022/04/26 08:56:27;;;;;;;7.63;6.57;;;27.70;54.20;;;;;;5115396;28;20507;-73
2022/04/26 08:58:54;;;;;;;8.23;7.10;;;27.40;53.80;;;;;;5115323;28;20474;-73
2022/04/26 09:01:25;;;;;;;6.47;5.87;;;26.90;55.10;;;;;;5115058;28;20772;-72
2022/04/26 09:03:59;;;;;;;7.43;6.63;;;26.50;54.80;;;;;;5115690;28;20455;-71
2022/04/26 09:06:36;;;;;;;8.65;7.85;;;26.30;56.10;;;;;;5114308;28;20431;-72
2022/04/26 09:09:07;;;;;;;9.95;7.72;;;26.50;56.00;;;;;;5112772;28;20443;-72
2022/04/26 09:11:34;;;;;;;7.23;6.53;;;26.30;56.30;;;;;;5115148;28;20276;-73
2022/04/26 09:14:02;;;;;;;8.93;7.23;;;25.80;57.20;;;;;;5115157;28;20937;-72
2022/04/26 09:16:30;;;;;;;7.80;6.73;;;25.10;57.70;;;;;;5115365;28;20449;-72
2022/04/26 09:18:58;;;;;;;9.50;7.60;;;24.70;58.80;;;;;;5115319;28;20491;-72
2022/04/26 09:21:27;;;;;;;7.70;6.30;;;24.70;59.20;;;;;;5115109;28;20544;-72
2022/04/26 09:23:57;;;;;;;8.70;6.50;;;25.50;58.60;;;;;;5115545;28;20451;-73
2022/04/26 09:26:26;;;;;;;11.83;7.97;;;25.40;58.10;;;;;;5114957;28;20461;-72
2022/04/26 09:28:53;;;;;;;12.83;7.53;;;25.10;58.20;;;;;;5114789;28;20489;-73
2022/04/26 09:31:22;;;;;;;17.00;8.00;;;25.00;58.30;;;;;;5106331;28;20566;-72
2022/04/26 09:33:51;;;;;;;10.20;6.47;;;24.90;58.10;;;;;;5115246;28;20448;-73
2022/04/26 09:36:19;;;;;;;8.40;6.50;;;24.70;58.40;;;;;;5115300;28;20500;-74
2022/04/26 09:38:54;;;;;;;8.60;7.80;;;24.80;58.20;;;;;;5114784;28;20589;-73
2022/04/26 09:41:23;;;;;;;11.93;6.90;;;24.50;58.10;;;;;;5114777;28;20443;-73
2022/04/26 09:43:58;;;;;;;14.10;6.60;;;24.20;58.90;;;;;;5115112;28;20447;-72
2022/04/26 09:46:25;;;;;;;6.90;6.30;;;24.60;59.30;;;;;;5114338;28;20450;-72
2022/04/26 09:48:54;;;;;;;11.43;7.10;;;25.40;55.80;;;;;;5114313;28;20984;-72
2022/04/26 09:51:21;;;;;;;9.87;8.03;;;25.60;56.10;;;;;;5114345;28;20487;-73
2022/04/26 09:53:48;;;;;;;7.93;7.13;;;25.50;56.10;;;;;;5115440;28;20481;-72
2022/04/26 09:56:15;;;;;;;7.13;6.43;;;24.70;55.60;;;;;;5115139;28;20557;-72
2022/04/26 09:58:44;;;;;;;10.17;6.30;;;24.30;56.10;;;;;;5114839;28;20474;-71
2022/04/26 10:01:14;;;;;;;11.47;6.20;;;24.00;56.30;;;;;;5114804;28;20441;-72
2022/04/26 10:03:46;;;;;;;13.67;6.70;;;24.30;56.90;;;;;;5114327;28;20519;-73
2022/04/26 10:06:16;;;;;;;9.00;7.20;;;24.40;57.00;;;;;;5116669;27;20444;-72
2022/04/26 10:08:44;;;;;;;8.90;6.47;;;24.40;56.70;;;;;;5109527;28;20471;-73
2022/04/26 10:11:10;;;;;;;10.57;6.57;;;23.80;57.60;;;;;;5113993;28;20521;-74
2022/04/26 10:13:42;;;;;;;7.20;6.50;;;23.60;58.70;;;;;;5114670;28;20916;-72
2022/04/26 10:16:11;;;;;;;7.23;6.53;;;23.80;58.00;;;;;;5103605;28;20478;-72
2022/04/26 10:18:43;;;;;;;8.57;7.13;;;24.10;57.90;;;;;;5106029;28;20468;-71
2022/04/26 10:21:11;;;;;;;7.70;6.90;;;24.60;56.80;;;;;;5112273;28;20439;-73
2022/04/26 10:24:13;;;;;;;9.10;7.00;;;24.50;56.80;;;;;;5114226;28;20450;-72
2022/04/26 10:26:41;;;;;;;11.17;7.63;;;24.20;56.80;;;;;;5080838;28;20511;-72
2022/04/26 10:29:17;;;;;;;8.00;6.33;;;23.50;57.30;;;;;;5113159;28;20566;-72
2022/04/26 10:31:47;;;;;;;9.20;6.13;;;22.60;58.70;;;;;;5113129;28;20488;-73
2022/04/26 10:34:30;;;;;;;9.33;8.10;;;22.30;59.70;;;;;;5113573;28;20550;-73
2022/04/26 10:37:00;;;;;;;9.23;6.90;;;22.00;59.90;;;;;;5114138;28;20454;-74
2022/04/26 10:39:38;;;;;;;8.80;7.20;;;21.70;60.20;;;;;;5112592;28;21013;-72
2022/04/26 10:42:25;;;;;;;7.43;6.27;;;21.50;60.30;;;;;;5111970;28;20496;-73
2022/04/26 10:44:58;;;;;;;8.50;7.33;;;21.30;60.80;;;;;;5114032;28;20474;-71
2022/04/26 10:47:29;;;;;;;6.77;5.90;;;20.90;61.80;;;;;;5113333;28;20506;-74
2022/04/26 10:49:58;;;;;;;8.57;7.13;;;20.80;63.20;;;;;;5112951;28;20494;-73
2022/04/26 10:52:47;;;;;;;8.10;7.30;;;20.40;62.50;;;;;;5113872;28;20456;-72
2022/04/26 10:55:26;;;;;;;7.67;6.87;;;20.30;64.30;;;;;;5112608;28;20462;-73
2022/04/26 10:57:55;;;;;;;7.07;6.10;;;20.40;65.20;;;;;;5113655;28;20486;-73
2022/04/26 11:00:34;;;;;;;11.63;8.43;;;20.60;65.30;;;;;;5113881;28;20438;-74
2022/04/26 11:03:08;;;;;;;9.43;7.03;;;20.40;64.50;;;;;;5113957;28;20463;-72
2022/04/26 11:05:36;;;;;;;9.43;7.57;;;20.10;65.20;;;;;;5112415;28;20489;-72
2022/04/26 11:08:06;;;;;;;8.30;7.17;;;20.10;65.40;;;;;;5113608;28;20484;-72
2022/04/26 11:13:31;;;;;;;8.27;5.63;;;20.20;65.90;;;;;;5113326;28;20423;-72
2022/04/26 11:16:13;;;;;;;8.87;7.50;;;20.40;65.80;;;;;;5113629;28;20534;-73
2022/04/26 11:18:43;;;;;;;5.60;5.07;;;20.70;64.30;;;;;;5116313;28;20501;-73
2022/04/26 11:21:13;;;;;;;10.50;6.90;;;21.10;63.80;;;;;;5118557;28;20428;-73
2022/04/26 11:29:26;;;;;;;9.13;6.00;;;22.00;61.40;;;;;;5123595;28;20459;-72
2022/04/26 11:31:54;;;;;;;7.50;6.27;;;21.90;61.40;;;;;;5122215;28;20474;-72
2022/04/26 11:34:46;;;;;;;8.70;6.60;;;22.10;61.10;;;;;;5124144;28;20451;-72
2022/04/26 11:37:14;;;;;;;8.57;7.13;;;21.90;60.00;;;;;;5116718;28;20538;-73
2022/04/26 11:39:42;;;;;;;10.80;6.20;;;21.40;59.80;;;;;;5113201;28;20549;-73
2022/04/26 11:42:09;;;;;;;10.07;6.50;;;20.90;61.90;;;;;;5112779;28;20798;-74
2022/04/26 11:44:37;;;;;;;10.10;8.07;;;20.90;62.60;;;;;;5113382;28;20435;-74
2022/04/26 11:47:04;;;;;;;6.97;6.27;;;20.90;60.80;;;;;;5113444;28;20507;-74
2022/04/26 11:49:41;;;;;;;8.03;6.43;;;20.50;60.80;;;;;;5112938;28;20542;-74
2022/04/26 11:52:09;;;;;;;9.43;6.50;;;20.30;61.30;;;;;;5112954;28;20970;-73
2022/04/26 11:54:37;;;;;;;8.53;7.37;;;20.10;62.20;;;;;;5113225;28;20439;-73
2022/04/26 11:57:05;;;;;;;7.40;6.37;;;20.00;61.10;;;;;;5113854;28;20435;-72
2022/04/26 11:59:34;;;;;;;8.67;6.20;;;19.90;60.80;;;;;;5111883;28;20841;-73
2022/04/26 12:02:01;;;;;;;9.03;7.23;;;19.60;62.00;;;;;;5113191;28;20443;-72
2022/04/26 12:04:29;;;;;;;7.87;6.20;;;19.50;61.20;;;;;;5112824;28;20835;-73
2022/04/26 12:06:57;;;;;;;7.97;7.13;;;19.70;61.20;;;;;;5113021;28;20451;-73
2022/04/26 12:09:26;;;;;;;6.83;5.97;;;19.70;61.10;;;;;;5112733;28;20476;-72
2022/04/26 12:12:02;;;;;;;9.77;7.00;;;20.10;60.90;;;;;;5112487;28;20503;-73
2022/04/26 12:14:29;;;;;;;8.77;6.60;;;20.20;61.10;;;;;;5110150;28;20439;-72
2022/04/26 12:16:56;;;;;;;6.20;5.00;;;20.20;61.20;;;;;;5112410;28;20543;-74
2022/04/26 12:19:34;;;;;;;10.30;7.10;;;20.10;61.50;;;;;;5111952;28;20916;-73
2022/04/26 12:22:02;;;;;;;6.70;5.83;;;20.20;61.60;;;;;;5112547;28;20462;-73
2022/04/26 12:24:33;;;;;;;5.30;4.80;;;20.20;61.90;;;;;;5112598;28;20558;-73
2022/04/26 12:27:02;;;;;;;12.67;6.77;;;20.10;61.40;;;;;;5112192;28;20453;-73
2022/04/26 12:29:30;;;;;;;8.97;5.60;;;20.10;61.50;;;;;;5113436;28;20467;-72
2022/04/26 12:31:58;;;;;;;6.17;5.37;;;20.10;62.30;;;;;;5116386;28;20489;-73
2022/04/26 12:34:29;;;;;;;7.97;6.53;;;19.90;62.10;;;;;;5115932;28;20816;-73
2022/04/26 12:36:58;;;;;;;7.07;6.37;;;19.90;62.00;;;;;;5115453;28;20507;-73
2022/04/26 12:39:28;;;;;;;7.80;6.67;;;19.90;63.20;;;;;;5115737;28;20458;-73
2022/04/26 12:41:59;;;;;;;7.77;7.07;;;20.00;62.50;;;;;;5115803;28;20515;-72
2022/04/26 12:44:26;;;;;;;11.23;6.80;;;19.90;61.90;;;;;;5115666;28;20451;-72
2022/04/26 12:52:44;;;;;;;8.97;7.23;;;19.20;63.00;;;;;;5115629;28;20495;-73
2022/04/26 12:55:11;;;;;;;8.37;7.10;;;19.20;65.00;;;;;;5115599;28;20534;-73
2022/04/26 12:57:50;;;;;;;10.13;8.07;;;19.00;66.30;;;;;;5115150;28;20889;-73
2022/04/26 13:00:19;;;;;;;9.10;8.17;;;18.90;67.70;;;;;;5114781;28;20526;-72
2022/04/26 13:02:48;;;;;;;10.87;7.87;;;19.00;67.90;;;;;;5115398;28;20451;-74
2022/04/26 13:05:15;;;;;;;9.20;7.47;;;19.00;67.70;;;;;;5114817;28;20526;-73
2022/04/26 13:07:42;;;;;;;8.40;7.50;;;19.00;67.40;;;;;;5115265;28;20447;-72
2022/04/26 13:10:09;;;;;;;8.23;7.40;;;18.90;69.10;;;;;;5114671;28;20441;-73
2022/04/26 13:12:36;;;;;;;11.63;8.43;;;19.00;71.50;;;;;;5114953;28;21005;-72
2022/04/26 13:15:06;;;;;;;11.23;8.10;;;18.90;74.10;;;;;;5115368;28;20453;-73
2022/04/26 13:17:32;;;;;;;10.37;8.30;;;18.80;75.10;;;;;;5114700;28;20443;-74
2022/04/26 13:19:59;;;;;;;9.70;7.73;;;18.60;75.30;;;;;;5114279;28;20471;-73
2022/04/26 13:22:26;;;;;;;10.60;8.53;;;18.40;77.10;;;;;;5114686;28;20471;-72
2022/04/26 13:24:53;;;;;;;11.70;8.90;;;18.40;79.20;;;;;;5115186;28;20858;-72
2022/04/26 13:27:20;;;;;;;12.90;8.80;;;18.50;79.30;;;;;;5114841;28;20462;-72
2022/04/26 13:29:50;;;;;;;11.50;7.60;;;18.50;80.30;;;;;;5114116;28;21071;-73
2022/04/26 13:32:19;;;;;;;12.33;8.57;;;18.50;80.80;;;;;;5114359;28;20483;-72
2022/04/26 13:34:46;;;;;;;10.50;8.53;;;18.60;81.20;;;;;;5115221;28;20527;-72
2022/04/26 13:37:14;;;;;;;10.53;8.07;;;18.70;81.60;;;;;;5114250;27;20574;-73
2022/04/26 13:39:44;;;;;;;13.00;8.50;;;18.70;82.00;;;;;;5114287;28;20470;-73
2022/04/26 13:42:12;;;;;;;13.83;7.17;;;18.80;82.20;;;;;;5106106;28;20482;-74
2022/04/26 13:44:40;;;;;;;8.60;7.33;;;18.60;83.10;;;;;;5116220;28;20490;-74
2022/04/26 13:47:08;;;;;;;12.83;7.07;;;18.50;84.20;;;;;;5114786;28;20462;-73
2022/04/26 13:49:39;;;;;;;17.63;9.13;;;18.50;85.00;;;;;;5113638;28;20547;-72
2022/04/26 13:52:07;;;;;;;10.07;8.17;;;18.50;85.10;;;;;;5114318;28;20487;-74
2022/04/26 13:54:34;;;;;;;11.90;9.53;;;18.30;85.30;;;;;;5114578;28;20446;-73
2022/04/26 13:57:01;;;;;;;8.33;7.03;;;18.30;86.20;;;;;;5114326;27;20530;-73
2022/04/26 13:59:28;;;;;;;8.37;7.50;;;18.00;87.30;;;;;;5113714;28;20519;-73
2022/04/26 14:01:56;;;;;;;14.70;7.80;;;18.00;87.80;;;;;;5114196;28;20443;-75
2022/04/26 14:04:23;;;;;;;12.47;9.13;;;17.70;88.50;;;;;;5113728;28;20446;-73
2022/04/26 14:06:51;;;;;;;13.10;8.80;;;17.40;90.30;;;;;;5114514;28;20602;-73
2022/04/26 14:09:19;;;;;;;11.80;7.17;;;17.20;90.90;;;;;;5113810;28;20527;-73
2022/04/26 14:11:46;;;;;;;13.90;8.57;;;17.20;91.40;;;;;;5113535;28;20481;-74
2022/04/26 14:22:37;;;;;;;14.47;9.20;;;17.30;90.80;;;;;;5084452;28;20427;-72
2022/04/26 14:25:08;;;;;;;10.60;7.60;;;17.30;90.60;;;;;;5114183;28;20629;-73
2022/04/26 14:27:36;;;;;;;19.30;8.10;;;17.30;90.60;;;;;;5113874;28;20464;-72
2022/04/26 14:30:05;;;;;;;9.90;7.90;;;17.30;90.60;;;;;;5113654;28;20520;-72
2022/04/26 14:32:32;;;;;;;8.57;7.60;;;17.20;90.70;;;;;;5113451;28;20486;-73
2022/04/26 14:34:59;;;;;;;13.60;8.80;;;17.10;90.90;;;;;;5114772;28;20204;-73
2022/04/26 14:37:26;;;;;;;9.50;8.50;;;16.90;91.00;;;;;;5110385;28;20514;-71
2022/04/26 14:39:54;;;;;;;7.73;6.80;;;17.00;91.50;;;;;;5119116;28;20501;-71
2022/04/26 14:42:21;;;;;;;14.30;8.43;;;17.00;91.60;;;;;;5120048;28;20892;-75
2022/04/26 14:44:48;;;;;;;16.13;8.00;;;17.00;91.20;;;;;;5119767;27;20453;-75
2022/04/26 14:47:16;;;;;;;10.38;9.23;;;16.70;91.20;;;;;;5119133;28;20199;-72
2022/04/26 14:49:43;;;;;;;9.32;7.40;;;16.70;91.90;;;;;;5116881;28;20750;-72
2022/04/26 14:52:15;;;;;;;10.32;7.10;;;16.70;91.90;;;;;;5113937;28;20697;-72
2022/04/26 14:54:42;;;;;;;9.45;7.05;;;16.60;92.20;;;;;;5113718;28;20201;-71
2022/04/26 14:57:10;;;;;;;19.98;7.72;;;16.60;92.00;;;;;;5113686;28;20210;-73
2022/04/26 14:59:45;;;;;;;10.47;7.67;;;16.60;91.90;;;;;;5112295;28;20318;-73
2022/04/26 15:02:12;;;;;;;11.85;9.05;;;16.50;92.00;;;;;;5112257;28;20945;-73
2022/04/26 15:04:40;;;;;;;9.43;7.50;;;16.40;92.30;;;;;;5113045;28;20716;-72
2022/04/26 15:07:07;;;;;;;10.88;7.85;;;16.40;92.10;;;;;;5113118;28;20290;-73
2022/04/26 15:09:47;;;;;;;11.50;7.50;;;16.40;91.80;;;;;;5112617;28;20241;-73
2022/04/26 15:17:48;;;;;;;11.43;8.07;;;16.20;91.60;;;;;;5113234;28;20224;-73
2022/04/26 15:20:16;;;;;;;10.15;6.65;;;16.30;91.70;;;;;;5112325;28;20266;-73
2022/04/26 15:22:44;;;;;;;10.97;7.13;;;16.30;91.80;;;;;;5112563;28;20239;-74
2022/04/26 15:25:11;;;;;;;8.55;7.50;;;16.40;91.60;;;;;;5112611;28;20453;-74
2022/04/26 15:27:40;;;;;;;11.27;6.88;;;16.40;91.20;;;;;;5112654;28;20274;-72
2022/04/26 15:30:09;;;;;;;9.55;6.72;;;16.40;90.80;;;;;;5112247;28;20202;-72
2022/04/26 15:32:36;;;;;;;11.32;5.53;;;16.30;89.60;;;;;;5113071;28;20210;-72
2022/04/26 15:35:04;;;;;;;8.43;6.22;;;16.20;89.70;;;;;;5112501;28;20231;-73
2022/04/26 15:37:31;;;;;;;11.05;6.28;;;16.20;89.50;;;;;;5112589;28;20298;-74
2022/04/26 15:39:59;;;;;;;13.20;7.47;;;16.30;90.00;;;;;;5112784;28;20224;-74
2022/04/26 15:42:26;;;;;;;8.23;6.05;;;16.30;89.40;;;;;;5112629;28;20195;-74
2022/04/26 15:44:54;;;;;;;8.33;5.43;;;16.40;89.30;;;;;;5113166;28;20292;-73
2022/04/26 15:47:21;;;;;;;7.73;5.80;;;16.30;88.00;;;;;;5112913;28;20908;-73
2022/04/26 15:49:48;;;;;;;9.70;6.95;;;16.30;88.10;;;;;;5111546;28;20897;-74
2022/04/26 15:52:15;;;;;;;7.55;6.60;;;16.10;88.40;;;;;;5112671;28;20210;-73
2022/04/26 15:54:43;;;;;;;8.73;6.65;;;16.10;89.20;;;;;;5112306;28;20970;-73
2022/04/26 15:57:11;;;;;;;9.20;5.95;;;16.10;89.70;;;;;;5112644;28;20199;-73
2022/04/26 15:59:39;;;;;;;7.88;5.53;;;16.10;90.50;;;;;;5111920;28;20258;-73
2022/04/26 16:02:08;;;;;;;10.82;6.55;;;16.00;90.80;;;;;;5112733;28;20191;-72
2022/04/26 16:04:36;;;;;;;8.35;6.07;;;15.90;90.80;;;;;;5116318;28;20204;-72
2022/04/26 16:07:03;;;;;;;8.73;6.05;;;15.70;91.00;;;;;;5117075;28;20296;-73
2022/04/26 16:20:29;;;;;;;11.77;6.78;;;15.40;91.50;;;;;;5115813;28;20342;-73
2022/04/26 16:22:57;;;;;;;7.97;6.05;;;15.20;91.60;;;;;;5116100;28;20243;-73
2022/04/26 16:25:24;;;;;;;6.65;5.30;;;15.10;91.90;;;;;;5115656;28;20254;-72
2022/04/26 16:27:54;;;;;;;8.63;5.20;;;15.00;91.60;;;;;;5115258;28;20645;-73
2022/04/26 16:30:21;;;;;;;8.63;5.20;;;14.90;92.00;;;;;;5108362;28;20280;-74
2022/04/26 16:32:49;;;;;;;8.88;4.40;;;14.90;92.30;;;;;;5115633;28;20222;-74
2022/04/26 16:35:17;;;;;;;5.50;4.68;;;15.00;92.50;;;;;;5115629;28;20561;-73
2022/04/26 16:37:44;;;;;;;7.45;4.40;;;15.00;92.30;;;;;;5115673;28;20208;-73
2022/04/26 16:40:12;;;;;;;6.47;4.78;;;15.00;91.90;;;;;;5115749;27;20285;-73
2022/04/26 16:42:39;;;;;;;8.43;4.47;;;15.00;92.10;;;;;;5116051;28;20200;-72
2022/04/26 16:45:07;;;;;;;6.68;3.88;;;15.00;92.10;;;;;;5116417;28;20534;-73
2022/04/26 16:47:34;;;;;;;6.38;4.50;;;14.90;92.20;;;;;;5115948;28;20316;-72
2022/04/26 16:50:04;;;;;;;7.28;4.30;;;14.90;92.10;;;;;;5115735;28;20300;-73
2022/04/26 16:52:31;;;;;;;10.00;5.30;;;14.80;92.30;;;;;;5115940;28;20341;-73
2022/04/26 16:54:58;;;;;;;4.15;3.65;;;14.80;92.30;;;;;;5115720;28;20201;-74
2022/04/26 16:57:28;;;;;;;11.38;4.55;;;14.70;92.50;;;;;;5114955;28;20209;-73
2022/04/26 16:59:56;;;;;;;9.60;4.65;;;14.60;92.60;;;;;;5114910;28;20231;-74
2022/04/26 17:02:23;;;;;;;11.55;6.72;;;14.50;92.60;;;;;;5115623;28;20210;-73
2022/04/26 17:04:52;;;;;;;5.80;4.05;;;14.30;93.30;;;;;;5115163;28;20288;-73
2022/04/26 17:07:21;;;;;;;5.15;3.78;;;14.30;93.30;;;;;;5115443;28;20236;-74
2022/04/26 17:09:47;;;;;;;9.07;4.15;;;14.20;93.80;;;;;;5114630;28;20294;-73
2022/04/26 17:12:15;;;;;;;5.90;4.07;;;14.20;93.90;;;;;;5116406;28;20305;-72
2022/04/26 17:14:42;;;;;;;5.55;3.95;;;14.10;93.80;;;;;;5117275;28;20280;-73
2022/04/26 17:17:10;;;;;;;6.45;3.95;;;14.00;94.00;;;;;;5117386;28;20206;-74